Estación de Santa Rosa INIA

Ultimos registro cada 15 minutos 71
Estación Fecha / Hora Temperatura Humedad Lluvia Velocidad Dirección Radiación Presion
71 Santa Rosa INIA 02-05-2026 17:30 17,3 51 0 0 237 40 993
70 Santa Rosa INIA 02-05-2026 17:15 17,7 47,6 0 0 253 126 993
69 Santa Rosa INIA 02-05-2026 17:00 18,1 44,3 0 0,2 251 161 993
68 Santa Rosa INIA 02-05-2026 16:45 18,3 43,8 0 0 0 196 993
67 Santa Rosa INIA 02-05-2026 16:30 18,4 45 0 0 224 232 993
66 Santa Rosa INIA 02-05-2026 16:15 18,6 43,7 0 0,2 246 266 993
65 Santa Rosa INIA 02-05-2026 16:00 18,3 42,9 0 0,1 227 301 993
64 Santa Rosa INIA 02-05-2026 15:45 18 44,7 0 0 246 334 993
63 Santa Rosa INIA 02-05-2026 15:30 18 43,5 0 0,2 230 364 993
62 Santa Rosa INIA 02-05-2026 15:15 17,7 50,9 0 0,1 256 393 994
61 Santa Rosa INIA 02-05-2026 15:00 17,4 47 0 0,7 240 419 994
60 Santa Rosa INIA 02-05-2026 14:45 16,8 44 0 0,6 231 443 994
59 Santa Rosa INIA 02-05-2026 14:30 16,8 40,6 0 0,7 228 464 994
58 Santa Rosa INIA 02-05-2026 14:15 16,6 48,1 0 0 213 482 994
57 Santa Rosa INIA 02-05-2026 14:00 16 46,6 0 0 0 497 994
56 Santa Rosa INIA 02-05-2026 13:45 15,6 55,4 0 0,2 233 509 994
55 Santa Rosa INIA 02-05-2026 13:30 15,1 61,6 0 0,5 240 518 995
54 Santa Rosa INIA 02-05-2026 13:15 14,4 63,4 0 1 227 524 995
53 Santa Rosa INIA 02-05-2026 13:00 14 64,2 0 1 196 527 995
52 Santa Rosa INIA 02-05-2026 12:45 13,3 72 0 0,5 227 526 995
51 Santa Rosa INIA 02-05-2026 12:30 12,6 85,5 0 0,4 241 521 996
50 Santa Rosa INIA 02-05-2026 12:15 12 94,2 0 0,8 241 513 996
49 Santa Rosa INIA 02-05-2026 12:00 10,9 96 0 0,8 221 501 996
48 Santa Rosa INIA 02-05-2026 11:45 10,2 100 0 0,4 224 487 996
47 Santa Rosa INIA 02-05-2026 11:30 9,6 100 0 0,5 263 469 996
46 Santa Rosa INIA 02-05-2026 11:15 8,7 100 0 0,5 243 448 996
45 Santa Rosa INIA 02-05-2026 11:00 7,8 100 0 0 0 424 997
44 Santa Rosa INIA 02-05-2026 10:45 7,1 100 0 0,4 258 396 997
43 Santa Rosa INIA 02-05-2026 10:30 6,2 100 0 0,5 236 365 997
42 Santa Rosa INIA 02-05-2026 10:15 5,4 100 0 0 0 334 997
41 Santa Rosa INIA 02-05-2026 10:00 5,1 100 0 0 0 300 997
40 Santa Rosa INIA 02-05-2026 09:45 4,3 100 0 0 0 265 997
39 Santa Rosa INIA 02-05-2026 09:30 3,6 0,4 0 0,1 213 229 997
38 Santa Rosa INIA 02-05-2026 09:15 3,1 0,6 0 0,1 242 192 998
37 Santa Rosa INIA 02-05-2026 09:00 2,6 0,5 0 0 0 161 997
36 Santa Rosa INIA 02-05-2026 08:45 2,4 0,5 0 0 0 118 997
35 Santa Rosa INIA 02-05-2026 08:30 1,6 0,5 0,1 0 0 99 997
34 Santa Rosa INIA 02-05-2026 08:15 1,4 0,5 0 0 0 90 997
33 Santa Rosa INIA 02-05-2026 08:00 0,8 0,5 0 0,1 226 60 997
32 Santa Rosa INIA 02-05-2026 07:45 0,5 0,5 0 0 0 14 997
31 Santa Rosa INIA 02-05-2026 07:30 -0,5 0,5 0 0 236 2 997
30 Santa Rosa INIA 02-05-2026 07:15 -0,6 0,4 0 0 0 0 997
29 Santa Rosa INIA 02-05-2026 07:00 -0,3 0,5 0 0 0 1 997
28 Santa Rosa INIA 02-05-2026 06:45 -0,1 0,5 0 0 0 0 997
27 Santa Rosa INIA 02-05-2026 06:30 0,6 0,5 0 0 0 0 997
26 Santa Rosa INIA 02-05-2026 06:15 1 0,5 0 0 0 0 997
25 Santa Rosa INIA 02-05-2026 06:00 1 0,5 0 0 0 1 997
24 Santa Rosa INIA 02-05-2026 05:45 1,3 0,5 0 0 0 0 998
23 Santa Rosa INIA 02-05-2026 05:30 1,6 0,5 0 0 0 0 998
22 Santa Rosa INIA 02-05-2026 05:15 1,6 0,5 0 0 0 0 998
21 Santa Rosa INIA 02-05-2026 05:00 1,4 0,6 0 0 0 1 998
20 Santa Rosa INIA 02-05-2026 04:45 0,6 0,5 0 0 0 0 998
19 Santa Rosa INIA 02-05-2026 04:30 2 0,5 0 0 0 0 998
18 Santa Rosa INIA 02-05-2026 04:15 2,4 0,4 0 0 0 0 998
17 Santa Rosa INIA 02-05-2026 04:00 1,8 0,5 0 0 0 1 998
16 Santa Rosa INIA 02-05-2026 03:45 2,7 0,4 0 0 0 0 999
15 Santa Rosa INIA 02-05-2026 03:30 3,2 0,4 0 0 0 0 999
14 Santa Rosa INIA 02-05-2026 03:15 3,5 0,5 0 0 0 0 999
13 Santa Rosa INIA 02-05-2026 03:00 3 0,5 0 0 0 1 999
12 Santa Rosa INIA 02-05-2026 02:45 2,6 0,5 0 0 0 0 999
11 Santa Rosa INIA 02-05-2026 02:30 2,4 0,5 0 0 0 0 999
10 Santa Rosa INIA 02-05-2026 02:15 3,1 100 0 0 0 0 999
9 Santa Rosa INIA 02-05-2026 02:00 3,7 100 0 0 0 1 999
8 Santa Rosa INIA 02-05-2026 01:45 4,1 100 0 0 247 0 999
7 Santa Rosa INIA 02-05-2026 01:30 3,9 100 0 0 241 0 1000
6 Santa Rosa INIA 02-05-2026 01:15 4,5 100 0 0 0 0 1000
5 Santa Rosa INIA 02-05-2026 01:00 5,9 100 0 1 248 1 1000
4 Santa Rosa INIA 02-05-2026 00:45 5,7 100 0 0 242 0 1000
3 Santa Rosa INIA 02-05-2026 00:30 5,6 100 0 0 231 0 1000
2 Santa Rosa INIA 02-05-2026 00:15 5,2 100 0 0 0 0 1001
1 Santa Rosa INIA 02-05-2026 00:00 5,3 100 0 0 0 1 1001